createdAt,value
2022-07-30T00:00:12.590Z,1.40
2022-07-30T00:02:51.930Z,1.58
2022-07-30T00:05:18.919Z,1.42
2022-07-30T00:07:46.066Z,1.40
2022-07-30T00:10:13.080Z,1.50
2022-07-30T00:12:40.106Z,1.55
2022-07-30T00:15:07.312Z,1.48
2022-07-30T00:17:34.311Z,1.50
2022-07-30T00:20:01.560Z,1.40
2022-07-30T00:22:30.783Z,1.48
2022-07-30T00:24:57.739Z,1.40
2022-07-30T00:27:24.799Z,1.50
2022-07-30T00:29:51.770Z,1.40
2022-07-30T00:32:18.724Z,1.50
2022-07-30T00:34:45.686Z,1.50
2022-07-30T00:37:12.649Z,1.40
2022-07-30T00:39:39.604Z,1.40
2022-07-30T00:42:06.605Z,1.40
2022-07-30T00:44:33.562Z,1.40
2022-07-30T00:47:00.888Z,1.60
2022-07-30T00:49:28.068Z,1.50
2022-07-30T00:51:55.165Z,1.50
2022-07-30T00:54:22.468Z,1.50
2022-07-30T00:56:49.944Z,1.30
2022-07-30T00:59:17.006Z,1.42
2022-07-30T01:01:44.006Z,1.60
2022-07-30T01:04:12.011Z,1.50
2022-07-30T01:06:40.121Z,1.50
2022-07-30T01:09:07.814Z,1.60
2022-07-30T01:11:37.297Z,1.60
2022-07-30T01:14:05.379Z,1.42
2022-07-30T01:16:32.531Z,1.50
2022-07-30T01:19:19.669Z,1.50
2022-07-30T01:21:49.336Z,1.50
2022-07-30T01:24:35.775Z,1.48
2022-07-30T01:27:03.179Z,1.42
2022-07-30T01:29:32.745Z,1.60
2022-07-30T01:32:00.698Z,1.40
2022-07-30T01:34:30.257Z,1.50
2022-07-30T01:36:58.988Z,1.50
2022-07-30T01:43:00.435Z,1.50
2022-07-30T01:45:29.201Z,1.55
2022-07-30T01:47:57.633Z,1.60
2022-07-30T01:50:24.679Z,1.40
2022-07-30T01:52:52.790Z,1.50
2022-07-30T01:55:22.568Z,1.50
2022-07-30T01:57:49.770Z,1.50
2022-07-30T02:00:17.572Z,1.40
2022-07-30T02:02:45.421Z,1.50
2022-07-30T02:05:12.684Z,1.50
2022-07-30T02:07:43.955Z,1.50
2022-07-30T02:10:13.553Z,1.50
2022-07-30T02:12:44.038Z,1.58
2022-07-30T02:15:48.612Z,1.50
2022-07-30T02:18:32.165Z,1.50
2022-07-30T02:21:05.407Z,1.70
2022-07-30T02:23:37.000Z,1.55
2022-07-30T02:26:05.415Z,1.60
2022-07-30T02:28:35.395Z,1.50
2022-07-30T02:31:02.567Z,1.63
2022-07-30T02:33:48.949Z,1.60
2022-07-30T02:36:16.956Z,1.55
2022-07-30T02:38:44.472Z,1.73
2022-07-30T02:41:12.825Z,1.60
2022-07-30T02:43:41.236Z,1.40
2022-07-30T02:46:10.395Z,1.57
2022-07-30T02:48:39.359Z,1.55
2022-07-30T02:51:07.231Z,1.60
2022-07-30T02:53:35.149Z,1.70
2022-07-30T02:56:02.554Z,1.35
2022-07-30T02:58:30.292Z,1.50
2022-07-30T03:00:57.756Z,1.60
2022-07-30T03:03:32.976Z,1.55
2022-07-30T03:06:00.887Z,1.63
2022-07-30T03:08:28.341Z,1.50
2022-07-30T03:10:56.841Z,1.35
2022-07-30T03:13:24.168Z,1.60
2022-07-30T03:15:51.764Z,1.60
2022-07-30T03:18:20.012Z,1.50
2022-07-30T03:20:48.551Z,1.40
2022-07-30T03:23:17.582Z,1.55
2022-07-30T03:25:47.262Z,1.58
2022-07-30T03:28:14.787Z,1.40
2022-07-30T03:30:43.835Z,1.50
2022-07-30T03:33:12.190Z,1.52
2022-07-30T03:35:42.168Z,1.60
2022-07-30T03:38:11.665Z,1.50
2022-07-30T03:40:38.855Z,1.70
2022-07-30T03:43:18.571Z,1.60
2022-07-30T03:45:54.459Z,1.42
2022-07-30T03:48:21.512Z,1.60
2022-07-30T03:50:48.771Z,1.40
2022-07-30T03:53:15.914Z,1.50
2022-07-30T03:55:43.316Z,1.60
2022-07-30T03:58:11.590Z,1.67
2022-07-30T04:00:39.900Z,1.53
2022-07-30T04:03:07.623Z,1.60
2022-07-30T04:05:41.515Z,1.50
2022-07-30T04:08:08.920Z,1.55
2022-07-30T04:10:35.925Z,1.50
2022-07-30T04:13:05.402Z,1.60
2022-07-30T04:16:37.262Z,1.40
2022-07-30T04:18:27.373Z,1.50
2022-07-30T04:20:54.645Z,1.50
2022-07-30T04:23:22.280Z,1.50
2022-07-30T04:25:49.543Z,1.48
2022-07-30T04:28:16.551Z,1.58
2022-07-30T04:30:43.581Z,1.60
2022-07-30T04:33:10.608Z,1.50
2022-07-30T04:35:50.233Z,1.53
2022-07-30T04:38:19.351Z,1.50
2022-07-30T04:40:46.369Z,1.52
2022-07-30T04:43:13.371Z,1.52
2022-07-30T04:45:40.991Z,1.40
2022-07-30T04:48:08.254Z,1.40
2022-07-30T04:50:36.665Z,1.40
2022-07-30T04:53:03.947Z,1.50
2022-07-30T04:55:31.218Z,1.40
2022-07-30T04:57:59.126Z,1.60
2022-07-30T05:00:26.227Z,1.50
2022-07-30T05:02:53.993Z,1.50
2022-07-30T05:05:21.203Z,1.60
2022-07-30T05:07:48.531Z,1.55
2022-07-30T05:10:15.674Z,1.50
2022-07-30T05:12:42.729Z,1.50
2022-07-30T05:15:10.505Z,1.40
2022-07-30T05:17:37.916Z,1.60
2022-07-30T05:20:05.370Z,1.40
2022-07-30T05:22:32.375Z,1.50
2022-07-30T05:24:59.525Z,1.40
2022-07-30T05:27:26.596Z,1.50
2022-07-30T05:29:55.358Z,1.50
2022-07-30T05:32:22.731Z,1.35
2022-07-30T05:34:52.803Z,1.40
2022-07-30T05:37:19.948Z,1.50
2022-07-30T05:40:00.552Z,1.40
2022-07-30T05:42:30.040Z,1.40
2022-07-30T05:44:57.004Z,1.35
2022-07-30T05:47:24.149Z,1.60
2022-07-30T05:49:51.165Z,1.60
2022-07-30T05:52:18.431Z,1.60
2022-07-30T05:54:45.790Z,1.50
2022-07-30T05:57:12.770Z,1.50
2022-07-30T05:59:39.931Z,1.50
2022-07-30T06:02:06.972Z,1.70
2022-07-30T06:04:35.302Z,1.48
2022-07-30T06:07:02.772Z,1.60
2022-07-30T06:09:36.990Z,1.58
2022-07-30T06:12:04.648Z,1.60
2022-07-30T06:14:32.123Z,1.50
2022-07-30T06:16:59.574Z,1.58
2022-07-30T06:19:26.995Z,1.50
2022-07-30T06:22:05.336Z,1.58
2022-07-30T06:24:34.275Z,1.60
2022-07-30T06:27:01.926Z,1.70
2022-07-30T06:29:29.190Z,1.60
2022-07-30T06:31:56.475Z,1.50
2022-07-30T06:34:23.450Z,1.50
2022-07-30T06:36:50.970Z,1.60
2022-07-30T06:39:57.337Z,1.60
2022-07-30T06:42:04.999Z,1.58
2022-07-30T06:44:31.978Z,1.50
2022-07-30T06:47:01.904Z,1.63
2022-07-30T06:49:32.934Z,1.60
2022-07-30T06:51:59.911Z,1.60
2022-07-30T06:54:26.911Z,1.60
2022-07-30T06:56:54.018Z,1.60
2022-07-30T06:59:20.991Z,1.58
2022-07-30T07:01:48.085Z,1.60
2022-07-30T07:04:15.254Z,1.60
2022-07-30T07:06:42.239Z,1.80
2022-07-30T07:09:48.343Z,1.70
2022-07-30T07:12:15.372Z,1.57
2022-07-30T07:14:42.319Z,1.65
2022-07-30T07:17:09.629Z,1.70
2022-07-30T07:19:59.628Z,1.70
2022-07-30T07:22:23.592Z,1.60
2022-07-30T07:24:50.580Z,1.40
2022-07-30T07:27:17.663Z,1.60
2022-07-30T07:30:04.825Z,1.70
2022-07-30T07:32:31.685Z,1.70
2022-07-30T07:34:58.660Z,1.60
2022-07-30T07:37:25.680Z,1.60
2022-07-30T07:39:52.644Z,1.90
2022-07-30T07:42:19.646Z,1.60
2022-07-30T07:44:46.599Z,1.57
2022-07-30T07:47:13.690Z,1.60
2022-07-30T07:49:40.749Z,1.90
2022-07-30T07:52:07.951Z,1.50
2022-07-30T07:54:34.918Z,1.65
2022-07-30T07:57:04.495Z,1.67
2022-07-30T07:59:39.954Z,1.60
2022-07-30T08:02:08.481Z,1.50
2022-07-30T08:04:35.797Z,1.55
2022-07-30T08:07:03.776Z,1.60
2022-07-30T08:09:42.040Z,1.50
2022-07-30T08:12:12.482Z,1.70
2022-07-30T08:14:39.721Z,1.70
2022-07-30T08:17:07.542Z,1.60
2022-07-30T08:19:34.939Z,1.58
2022-07-30T08:22:01.931Z,1.60
2022-07-30T08:24:28.901Z,1.50
2022-07-30T08:30:29.137Z,1.70
2022-07-30T08:32:56.145Z,1.60
2022-07-30T08:35:23.079Z,1.60
2022-07-30T08:37:50.065Z,1.70
2022-07-30T08:40:19.111Z,1.50
2022-07-30T08:42:46.492Z,1.40
2022-07-30T08:45:14.519Z,1.50
2022-07-30T08:47:41.977Z,1.50
2022-07-30T08:50:09.309Z,1.70
2022-07-30T08:52:37.053Z,1.60
2022-07-30T08:55:48.553Z,1.60
2022-07-30T08:58:24.511Z,1.60
2022-07-30T09:00:51.525Z,1.50
2022-07-30T09:03:18.561Z,1.48
2022-07-30T09:05:46.370Z,1.70
2022-07-30T09:08:13.443Z,1.50
2022-07-30T09:10:52.692Z,1.50
2022-07-30T09:13:28.941Z,1.60
2022-07-30T09:15:56.603Z,1.57
2022-07-30T09:18:28.543Z,1.50
2022-07-30T09:20:56.051Z,1.50
2022-07-30T09:23:23.085Z,1.50
2022-07-30T09:25:50.892Z,1.60
2022-07-30T09:28:49.184Z,1.55
2022-07-30T09:31:17.359Z,1.45
2022-07-30T09:33:47.359Z,1.60
2022-07-30T09:36:16.554Z,1.60
2022-07-30T09:38:45.731Z,1.70
2022-07-30T09:41:36.212Z,1.50
2022-07-30T09:44:01.292Z,1.58
2022-07-30T09:46:42.313Z,1.60
2022-07-30T09:49:17.727Z,1.60
2022-07-30T09:51:54.424Z,1.80
2022-07-30T09:54:51.597Z,1.63
2022-07-30T09:57:25.915Z,1.60
2022-07-30T09:59:55.705Z,1.60
2022-07-30T10:02:31.967Z,1.50
2022-07-30T10:05:16.145Z,1.70
2022-07-30T10:07:52.083Z,1.75
2022-07-30T10:13:45.701Z,1.70
2022-07-30T10:16:13.512Z,1.73
2022-07-30T10:18:42.302Z,1.58
2022-07-30T10:21:09.439Z,1.67
2022-07-30T10:23:36.541Z,1.60
2022-07-30T10:26:11.088Z,1.70
2022-07-30T10:28:39.439Z,1.80
2022-07-30T10:31:08.364Z,1.60
2022-07-30T10:37:27.846Z,1.90
2022-07-30T10:40:15.510Z,1.70
2022-07-30T10:45:46.390Z,1.60
2022-07-30T10:48:15.132Z,1.90
2022-07-30T10:50:59.701Z,1.63
2022-07-30T10:53:46.634Z,1.80
2022-07-30T10:56:17.952Z,1.70
2022-07-30T10:59:07.833Z,1.80
2022-07-30T11:04:29.641Z,1.98
2022-07-30T11:07:17.472Z,1.70
2022-07-30T11:09:44.582Z,1.85
2022-07-30T11:15:45.808Z,2.00
2022-07-30T11:18:15.433Z,1.80
2022-07-30T11:20:43.144Z,1.88
2022-07-30T11:23:35.818Z,1.92
2022-07-30T11:26:02.845Z,1.80
2022-07-30T11:28:40.068Z,1.77
2022-07-30T11:31:30.748Z,2.00
2022-07-30T11:37:18.409Z,1.95
2022-07-30T11:42:35.265Z,1.95
2022-07-30T11:47:57.472Z,1.80
2022-07-30T11:50:25.887Z,1.92
2022-07-30T11:52:54.057Z,1.90
2022-07-30T11:55:42.264Z,1.98
2022-07-30T11:58:10.905Z,1.90
2022-07-30T12:00:40.534Z,1.97
2022-07-30T12:03:08.675Z,2.10
2022-07-30T12:05:35.807Z,1.80
2022-07-30T12:08:02.794Z,2.00
2022-07-30T12:10:29.902Z,1.87
2022-07-30T12:13:14.877Z,1.90
2022-07-30T12:15:43.947Z,1.87
2022-07-30T12:18:28.810Z,2.00
2022-07-30T12:23:33.299Z,1.97
2022-07-30T12:26:00.673Z,2.00
2022-07-30T12:28:29.156Z,2.00
2022-07-30T12:30:57.478Z,2.10
2022-07-30T12:33:24.796Z,1.90
2022-07-30T12:35:52.911Z,2.00
2022-07-30T12:38:20.598Z,2.30
2022-07-30T12:41:04.759Z,2.10
2022-07-30T12:43:49.467Z,2.10
2022-07-30T12:46:21.341Z,2.00
2022-07-30T12:51:35.242Z,2.03
2022-07-30T12:54:20.569Z,2.00
2022-07-30T12:57:05.394Z,1.95
2022-07-30T12:59:33.673Z,1.95
2022-07-30T13:02:01.160Z,2.03
2022-07-30T13:04:28.275Z,2.10
2022-07-30T13:07:12.212Z,2.10
2022-07-30T13:09:40.057Z,2.10
2022-07-30T13:12:07.245Z,2.07
2022-07-30T13:14:34.696Z,2.00
2022-07-30T13:17:03.668Z,2.00
2022-07-30T13:19:31.329Z,2.00
2022-07-30T13:21:58.312Z,2.13
2022-07-30T13:24:25.266Z,2.10
2022-07-30T13:26:52.235Z,2.20
2022-07-30T13:29:19.268Z,2.10
2022-07-30T13:31:46.608Z,2.00
2022-07-30T13:34:13.599Z,2.00
2022-07-30T13:36:41.583Z,1.98
2022-07-30T13:39:08.613Z,2.00
2022-07-30T13:41:35.914Z,2.05
2022-07-30T13:44:03.002Z,2.20
2022-07-30T13:46:29.965Z,2.13
2022-07-30T13:48:57.083Z,1.90
2022-07-30T13:51:24.127Z,2.20
2022-07-30T13:53:51.567Z,2.00
2022-07-30T13:56:19.869Z,1.93
2022-07-30T13:58:47.173Z,2.17
2022-07-30T14:01:17.954Z,2.03
2022-07-30T14:03:49.968Z,2.10
2022-07-30T14:06:22.086Z,2.22
2022-07-30T14:08:49.266Z,1.97
2022-07-30T14:11:17.699Z,1.90
2022-07-30T14:13:45.590Z,2.00
2022-07-30T14:16:35.378Z,1.93
2022-07-30T14:19:00.695Z,2.05
2022-07-30T14:21:27.926Z,2.20
2022-07-30T14:23:55.035Z,2.10
2022-07-30T14:26:21.965Z,2.00
2022-07-30T14:28:48.914Z,2.10
2022-07-30T14:31:16.763Z,2.10
2022-07-30T14:33:44.050Z,2.13
2022-07-30T14:36:11.071Z,2.20
2022-07-30T14:38:39.702Z,2.17
2022-07-30T14:41:08.690Z,1.90
2022-07-30T14:43:35.689Z,2.20
2022-07-30T14:46:02.683Z,2.17
2022-07-30T14:48:29.709Z,2.00
2022-07-30T14:51:13.349Z,2.10
2022-07-30T14:53:43.137Z,2.20
2022-07-30T14:56:14.411Z,2.00
2022-07-30T14:58:44.787Z,2.15
2022-07-30T15:01:16.265Z,2.10
2022-07-30T15:03:44.429Z,2.20
2022-07-30T15:06:12.795Z,2.10
2022-07-30T15:08:39.883Z,1.90
2022-07-30T15:11:08.059Z,2.10
2022-07-30T15:13:36.915Z,2.10
2022-07-30T15:16:06.149Z,2.10
2022-07-30T15:18:33.587Z,2.08
2022-07-30T15:21:00.618Z,2.10
2022-07-30T15:23:27.632Z,2.10
2022-07-30T15:25:54.570Z,2.03
2022-07-30T15:28:22.176Z,2.10
2022-07-30T15:30:49.184Z,2.10
2022-07-30T15:33:17.109Z,1.88
2022-07-30T15:35:44.042Z,2.00
2022-07-30T15:38:10.972Z,2.15
2022-07-30T15:40:38.154Z,2.10
2022-07-30T15:43:08.561Z,1.80
2022-07-30T15:45:50.054Z,2.10
2022-07-30T15:48:24.789Z,2.10
2022-07-30T15:50:54.560Z,2.10
2022-07-30T15:53:21.521Z,2.00
2022-07-30T15:55:48.593Z,1.90
2022-07-30T15:58:15.573Z,2.17
2022-07-30T16:00:43.076Z,2.15
2022-07-30T16:03:10.052Z,2.00
2022-07-30T16:05:52.545Z,2.00
2022-07-30T16:08:20.119Z,2.00
2022-07-30T16:10:47.128Z,2.20
2022-07-30T16:13:14.135Z,2.20
2022-07-30T16:15:41.126Z,2.20
2022-07-30T16:18:08.142Z,2.17
2022-07-30T16:20:35.202Z,2.10
2022-07-30T16:23:02.263Z,2.20
2022-07-30T16:25:29.280Z,2.30
2022-07-30T16:27:57.503Z,2.20
2022-07-30T16:30:27.463Z,2.10
2022-07-30T16:32:56.140Z,2.10
2022-07-30T16:35:23.491Z,2.08
2022-07-30T16:37:50.914Z,2.10
2022-07-30T16:40:17.923Z,2.20
2022-07-30T16:42:44.970Z,2.08
2022-07-30T16:45:49.693Z,2.10
2022-07-30T16:48:16.720Z,2.05
2022-07-30T16:50:43.994Z,2.00
2022-07-30T16:53:14.162Z,2.15
2022-07-30T16:55:41.593Z,2.10
2022-07-30T16:58:08.597Z,2.08
2022-07-30T17:00:35.591Z,2.10
2022-07-30T17:03:02.702Z,2.17
2022-07-30T17:05:29.773Z,2.10
2022-07-30T17:07:57.000Z,2.20
2022-07-30T17:10:25.858Z,2.10
2022-07-30T17:12:54.098Z,2.20
2022-07-30T17:15:32.961Z,2.30
2022-07-30T17:18:00.455Z,2.10
2022-07-30T17:20:27.502Z,2.25
2022-07-30T17:22:55.950Z,2.10
2022-07-30T17:25:25.479Z,2.20
2022-07-30T17:27:52.430Z,2.30
2022-07-30T17:30:20.342Z,2.07
2022-07-30T17:32:47.460Z,2.00
2022-07-30T17:35:14.542Z,2.10
2022-07-30T17:37:41.769Z,2.15
2022-07-30T17:40:29.398Z,2.15
2022-07-30T17:43:02.820Z,2.15
2022-07-30T17:45:30.478Z,2.28
2022-07-30T17:47:58.207Z,2.20
2022-07-30T17:50:25.212Z,2.17
2022-07-30T17:52:52.185Z,2.20
2022-07-30T17:55:19.331Z,2.17
2022-07-30T17:57:46.324Z,2.13
2022-07-30T18:00:13.577Z,2.17
2022-07-30T18:02:40.527Z,2.22
2022-07-30T18:05:08.757Z,2.20
2022-07-30T18:07:35.720Z,2.10
2022-07-30T18:10:03.110Z,2.20
2022-07-30T18:12:30.093Z,2.28
2022-07-30T18:14:57.052Z,2.10
2022-07-30T18:17:24.196Z,2.20
2022-07-30T18:19:51.217Z,2.10
2022-07-30T18:22:22.194Z,2.10
2022-07-30T18:24:57.218Z,2.00
2022-07-30T18:27:24.207Z,2.15
2022-07-30T18:29:51.244Z,2.40
2022-07-30T18:32:18.580Z,2.00
2022-07-30T18:34:45.580Z,2.28
2022-07-30T18:37:12.570Z,2.00
2022-07-30T18:39:39.513Z,2.20
2022-07-30T18:42:06.994Z,2.20
2022-07-30T18:44:34.393Z,2.05
2022-07-30T18:47:01.698Z,1.90
2022-07-30T18:49:37.516Z,2.20
2022-07-30T18:52:05.786Z,2.20
2022-07-30T18:54:33.148Z,2.08
2022-07-30T18:57:00.182Z,2.03
2022-07-30T18:59:27.167Z,2.10
2022-07-30T19:01:54.243Z,2.10
2022-07-30T19:04:21.217Z,2.20
2022-07-30T19:06:48.181Z,2.10
2022-07-30T19:09:17.770Z,2.03
2022-07-30T19:11:45.911Z,2.30
2022-07-30T19:14:13.906Z,2.00
2022-07-30T19:16:41.749Z,2.10
2022-07-30T19:19:08.986Z,2.10
2022-07-30T19:21:36.204Z,2.20
2022-07-30T19:24:03.611Z,2.20
2022-07-30T19:26:30.807Z,2.10
2022-07-30T19:28:58.170Z,2.30
2022-07-30T19:31:25.207Z,2.10
2022-07-30T19:33:52.475Z,2.10
2022-07-30T19:36:20.991Z,2.00
2022-07-30T19:38:49.856Z,2.00
2022-07-30T19:41:17.071Z,2.15
2022-07-30T19:43:55.600Z,2.10
2022-07-30T19:46:25.295Z,2.20
2022-07-30T19:48:52.415Z,2.20
2022-07-30T19:51:20.948Z,2.30
2022-07-30T19:53:52.473Z,2.17
2022-07-30T19:56:19.696Z,2.10
2022-07-30T19:58:46.745Z,2.05
2022-07-30T20:01:15.510Z,2.10
2022-07-30T20:07:15.055Z,2.10
2022-07-30T20:09:44.454Z,2.13
2022-07-30T20:12:12.608Z,2.20
2022-07-30T20:14:43.366Z,2.20
2022-07-30T20:17:10.614Z,2.00
2022-07-30T20:19:37.834Z,2.20
2022-07-30T20:22:04.826Z,2.30
2022-07-30T20:24:33.730Z,2.05
2022-07-30T20:27:01.577Z,2.20
2022-07-30T20:29:48.527Z,2.08
2022-07-30T20:32:15.628Z,2.20
2022-07-30T20:34:43.978Z,2.22
2022-07-30T20:37:19.560Z,2.20
2022-07-30T20:39:49.274Z,2.00
2022-07-30T20:42:16.399Z,2.35
2022-07-30T20:44:44.269Z,2.17
2022-07-30T20:47:37.462Z,2.23
2022-07-30T20:50:09.608Z,2.08
2022-07-30T20:52:37.439Z,2.10
2022-07-30T20:55:07.768Z,2.00
2022-07-30T20:57:51.418Z,2.30
2022-07-30T21:00:22.970Z,2.20
2022-07-30T21:02:51.680Z,2.20
2022-07-30T21:05:19.829Z,2.10
2022-07-30T21:07:47.522Z,2.03
2022-07-30T21:10:14.818Z,2.20
2022-07-30T21:12:44.831Z,2.00
2022-07-30T21:15:23.570Z,2.00
2022-07-30T21:17:51.491Z,2.00
2022-07-30T21:20:27.308Z,2.08
2022-07-30T21:22:55.871Z,2.10
2022-07-30T21:25:23.440Z,2.15
2022-07-30T21:28:00.150Z,2.20
2022-07-30T21:30:27.205Z,2.20
2022-07-30T21:32:54.365Z,1.80
2022-07-30T21:38:43.892Z,2.20
2022-07-30T21:41:14.030Z,2.10
2022-07-30T21:43:42.396Z,2.20
2022-07-30T21:46:10.787Z,2.20
2022-07-30T21:48:38.165Z,2.00
2022-07-30T21:51:06.693Z,2.17
2022-07-30T21:53:45.119Z,2.10
2022-07-30T21:56:13.793Z,2.25
2022-07-30T21:58:41.560Z,2.20
2022-07-30T22:01:17.132Z,2.20
2022-07-30T22:04:03.379Z,2.10
2022-07-30T22:06:33.221Z,2.10
2022-07-30T22:09:00.266Z,2.13
2022-07-30T22:11:42.465Z,2.20
2022-07-30T22:14:12.170Z,2.20
2022-07-30T22:16:39.298Z,2.08
2022-07-30T22:19:14.292Z,2.35
2022-07-30T22:21:41.591Z,2.10
2022-07-30T22:24:08.685Z,2.20
2022-07-30T22:26:35.669Z,2.10
2022-07-30T22:29:02.612Z,2.20
2022-07-30T22:31:31.015Z,2.00
2022-07-30T22:34:11.244Z,2.00
2022-07-30T22:36:38.800Z,2.00
2022-07-30T22:39:08.828Z,2.00
2022-07-30T22:41:36.057Z,2.30
2022-07-30T22:44:03.903Z,2.03
2022-07-30T22:46:31.960Z,2.20
2022-07-30T22:48:59.699Z,2.00
2022-07-30T22:51:58.738Z,2.05
2022-07-30T22:54:14.049Z,2.20
2022-07-30T22:56:46.120Z,2.20
2022-07-30T22:59:13.310Z,2.15
2022-07-30T23:01:43.488Z,2.03
2022-07-30T23:04:10.729Z,2.30
2022-07-30T23:06:37.725Z,2.08
2022-07-30T23:09:08.788Z,2.30
2022-07-30T23:11:38.639Z,2.20
2022-07-30T23:14:07.538Z,2.03
2022-07-30T23:16:34.998Z,2.00
2022-07-30T23:19:02.206Z,2.08
2022-07-30T23:21:29.244Z,2.15
2022-07-30T23:23:56.183Z,1.97
2022-07-30T23:29:56.187Z,1.90
2022-07-30T23:32:23.146Z,2.10
2022-07-30T23:34:50.175Z,1.92
2022-07-30T23:37:17.196Z,2.30
2022-07-30T23:39:44.441Z,2.20
2022-07-30T23:42:11.703Z,2.10
2022-07-30T23:44:39.262Z,2.00
2022-07-30T23:47:06.343Z,2.20
2022-07-30T23:49:33.352Z,2.20
2022-07-30T23:52:00.339Z,2.05
2022-07-30T23:54:28.713Z,1.95
2022-07-30T23:56:56.296Z,2.20
2022-07-30T23:59:23.972Z,2.00
